Meteo Giornale » Osservazioni meteo Italia » Decimomannu

ore: 23:55 - Osservazioni Meteo Decimomannu
Lat. 39° 21' N Lon. 8° 58' E Alt. 29 metri s.l.m.

sereno Europe/Rome

16 °C

Sereno

Temp. 24 Ore

11 °C

26 °C

Nord

3.7 Km/h

Dew point 14 °C

Umidità 87 %

Visibilità  10 Km

Il sole sorge alle ore 07:10

Il sole tramonta alle ore 19:23

Data e Ora Cielo e Fenomeni T °C DP °C Um. % Pres. hPa Vis. km Vento km/h
Ieri h: 23:55 sereno Sereno 16 14 87 1019 10 N 3.7
Ieri h: 22:55 sereno Sereno 16 14 87 1019 10 E 9.3
Ieri h: 21:55 sereno Sereno 17 15 88 1019 10 E 9.3
Ieri h: 20:55 sereno Sereno 18 15 82 1018 10 E/SE 9.3
Ieri h: 19:55 sereno Sereno 19 14 72 1018 10 SE 11.1
Ieri h: 18:55 sereno Sereno 21 16 73 1018 10 SE 20.3
Ieri h: 17:55 poco_nuvoloso Poco Nuvoloso 24 15 57 1017 10 SE 25.9
Ieri h: 16:55 poco_nuvoloso Poco Nuvoloso 26 8 31 1017 10 NO 9.3
Ieri h: 15:55 poco_nuvoloso Poco Nuvoloso 26 8 31 1018 10 NO 14.8
Ieri h: 14:55 poco_nuvoloso Poco Nuvoloso 25 10 38 1018 10 NO 11.1
Ieri h: 13:55 poco_nuvoloso Poco Nuvoloso 24 9 38 1018 10 NO 13
Ieri h: 12:55 poco_nuvoloso Poco Nuvoloso 23 12 49 1019 10 N 18.5
Ieri h: 11:55 poco_nuvoloso Poco Nuvoloso 23 13 53 1020 10 N 14.8
Ieri h: 10:55 poco_nuvoloso Poco Nuvoloso 21 14 64 1020 10 NO 7.4
Ieri h: 09:55 sereno Sereno 18 15 82 1020 10 O 7.4
Ieri h: 08:55 sereno Sereno 13 12 93 1018 10 N 5.5
Ieri h: 07:55 sereno Sereno 11 10 93 1019 10 N/NO 7.4
Ieri h: 06:55 poco_nuvoloso Poco Nuvoloso 11 10 93 1019 10 N 3.7
Ieri h: 05:55 sereno Sereno 11 10 93 1019 10 N 5.5
Ieri h: 04:55 sereno Sereno 11 10 93 1020 10 N 7.4
Ieri h: 03:55 sereno Sereno 12 12 100 1019 10 N 7.4
Ieri h: 02:55 sereno Sereno 12 11 93 1019 10 N 5.5
Ieri h: 01:55 sereno Sereno 13 12 93 1020 10 N 3.7